sensor_id;sensor_type;location;lat;lon;timestamp;P1;durP1;ratioP1;P2;durP2;ratioP2
8881;SDS011;4477;48.736;9.176;2023-12-14T00:01:40;9.00;;;7.50;;
8881;SDS011;4477;48.736;9.176;2023-12-14T00:04:07;6.87;;;5.77;;
8881;SDS011;4477;48.736;9.176;2023-12-14T00:06:35;6.97;;;6.20;;
8881;SDS011;4477;48.736;9.176;2023-12-14T00:09:02;7.00;;;5.43;;
8881;SDS011;4477;48.736;9.176;2023-12-14T00:11:29;5.87;;;5.30;;
8881;SDS011;4477;48.736;9.176;2023-12-14T00:13:56;5.40;;;4.90;;
8881;SDS011;4477;48.736;9.176;2023-12-14T00:16:23;8.03;;;5.37;;
8881;SDS011;4477;48.736;9.176;2023-12-14T00:18:50;4.97;;;4.33;;
8881;SDS011;4477;48.736;9.176;2023-12-14T00:21:16;6.27;;;4.80;;
8881;SDS011;4477;48.736;9.176;2023-12-14T00:23:45;5.10;;;4.60;;
8881;SDS011;4477;48.736;9.176;2023-12-14T00:26:12;7.77;;;4.40;;
8881;SDS011;4477;48.736;9.176;2023-12-14T00:28:39;5.93;;;4.07;;
8881;SDS011;4477;48.736;9.176;2023-12-14T00:31:05;5.70;;;4.00;;
8881;SDS011;4477;48.736;9.176;2023-12-14T00:33:32;6.70;;;4.30;;
8881;SDS011;4477;48.736;9.176;2023-12-14T00:35:59;4.67;;;3.90;;
8881;SDS011;4477;48.736;9.176;2023-12-14T00:38:26;8.80;;;4.20;;
8881;SDS011;4477;48.736;9.176;2023-12-14T00:40:54;6.60;;;4.20;;
8881;SDS011;4477;48.736;9.176;2023-12-14T00:43:21;8.13;;;4.07;;
8881;SDS011;4477;48.736;9.176;2023-12-14T00:45:48;5.43;;;4.00;;
8881;SDS011;4477;48.736;9.176;2023-12-14T00:48:17;4.47;;;3.87;;
8881;SDS011;4477;48.736;9.176;2023-12-14T00:50:44;6.23;;;4.03;;
8881;SDS011;4477;48.736;9.176;2023-12-14T00:53:11;6.40;;;4.10;;
8881;SDS011;4477;48.736;9.176;2023-12-14T00:55:38;4.60;;;3.83;;
8881;SDS011;4477;48.736;9.176;2023-12-14T00:58:06;5.97;;;3.70;;
8881;SDS011;4477;48.736;9.176;2023-12-14T01:00:33;5.17;;;3.80;;
8881;SDS011;4477;48.736;9.176;2023-12-14T01:03:00;4.67;;;3.83;;
8881;SDS011;4477;48.736;9.176;2023-12-14T01:05:28;5.53;;;3.97;;
8881;SDS011;4477;48.736;9.176;2023-12-14T01:07:55;4.47;;;3.90;;
8881;SDS011;4477;48.736;9.176;2023-12-14T01:10:21;5.07;;;3.63;;
8881;SDS011;4477;48.736;9.176;2023-12-14T01:12:48;4.17;;;3.63;;
8881;SDS011;4477;48.736;9.176;2023-12-14T01:15:17;5.97;;;3.90;;
8881;SDS011;4477;48.736;9.176;2023-12-14T01:17:44;3.77;;;3.43;;
8881;SDS011;4477;48.736;9.176;2023-12-14T01:20:11;3.97;;;3.40;;
8881;SDS011;4477;48.736;9.176;2023-12-14T01:22:38;3.97;;;3.20;;
8881;SDS011;4477;48.736;9.176;2023-12-14T01:25:05;4.50;;;3.37;;
8881;SDS011;4477;48.736;9.176;2023-12-14T01:27:32;4.57;;;3.23;;
8881;SDS011;4477;48.736;9.176;2023-12-14T01:29:59;5.10;;;3.53;;
8881;SDS011;4477;48.736;9.176;2023-12-14T01:32:27;4.30;;;3.37;;
8881;SDS011;4477;48.736;9.176;2023-12-14T01:34:54;3.90;;;3.30;;
8881;SDS011;4477;48.736;9.176;2023-12-14T01:37:21;3.97;;;3.20;;
8881;SDS011;4477;48.736;9.176;2023-12-14T01:39:47;4.20;;;3.03;;
8881;SDS011;4477;48.736;9.176;2023-12-14T01:42:14;4.13;;;3.10;;
8881;SDS011;4477;48.736;9.176;2023-12-14T01:44:41;3.47;;;2.93;;
8881;SDS011;4477;48.736;9.176;2023-12-14T01:47:08;3.43;;;2.90;;
8881;SDS011;4477;48.736;9.176;2023-12-14T01:49:36;4.83;;;3.00;;
8881;SDS011;4477;48.736;9.176;2023-12-14T01:52:04;3.93;;;3.07;;
8881;SDS011;4477;48.736;9.176;2023-12-14T01:54:31;3.77;;;3.13;;
8881;SDS011;4477;48.736;9.176;2023-12-14T01:56:58;3.47;;;2.50;;
8881;SDS011;4477;48.736;9.176;2023-12-14T01:59:25;3.53;;;2.23;;
8881;SDS011;4477;48.736;9.176;2023-12-14T02:01:52;4.93;;;2.57;;
8881;SDS011;4477;48.736;9.176;2023-12-14T02:04:21;4.63;;;2.53;;
8881;SDS011;4477;48.736;9.176;2023-12-14T02:06:50;4.03;;;2.50;;
8881;SDS011;4477;48.736;9.176;2023-12-14T02:09:17;3.27;;;2.50;;
8881;SDS011;4477;48.736;9.176;2023-12-14T02:11:44;2.90;;;2.60;;
8881;SDS011;4477;48.736;9.176;2023-12-14T02:14:11;3.53;;;2.77;;
8881;SDS011;4477;48.736;9.176;2023-12-14T02:16:38;2.73;;;2.53;;
8881;SDS011;4477;48.736;9.176;2023-12-14T02:19:05;3.87;;;2.70;;
8881;SDS011;4477;48.736;9.176;2023-12-14T02:21:32;2.70;;;2.50;;
8881;SDS011;4477;48.736;9.176;2023-12-14T02:24:00;3.67;;;2.63;;
8881;SDS011;4477;48.736;9.176;2023-12-14T02:26:28;6.43;;;3.50;;
8881;SDS011;4477;48.736;9.176;2023-12-14T02:28:54;4.47;;;3.07;;
8881;SDS011;4477;48.736;9.176;2023-12-14T02:31:22;4.23;;;3.07;;
8881;SDS011;4477;48.736;9.176;2023-12-14T02:33:49;4.37;;;3.50;;
8881;SDS011;4477;48.736;9.176;2023-12-14T02:36:16;5.67;;;3.50;;
8881;SDS011;4477;48.736;9.176;2023-12-14T02:38:43;4.23;;;3.47;;
8881;SDS011;4477;48.736;9.176;2023-12-14T02:41:11;5.83;;;3.53;;
8881;SDS011;4477;48.736;9.176;2023-12-14T02:43:38;5.90;;;4.03;;
8881;SDS011;4477;48.736;9.176;2023-12-14T02:46:05;4.90;;;3.30;;
8881;SDS011;4477;48.736;9.176;2023-12-14T02:48:32;5.17;;;3.50;;
8881;SDS011;4477;48.736;9.176;2023-12-14T02:50:59;7.00;;;3.70;;
8881;SDS011;4477;48.736;9.176;2023-12-14T02:53:26;5.43;;;3.30;;
8881;SDS011;4477;48.736;9.176;2023-12-14T02:55:53;3.77;;;3.03;;
8881;SDS011;4477;48.736;9.176;2023-12-14T02:58:21;3.27;;;2.73;;
8881;SDS011;4477;48.736;9.176;2023-12-14T03:00:48;3.67;;;2.53;;
8881;SDS011;4477;48.736;9.176;2023-12-14T03:03:15;7.53;;;3.03;;
8881;SDS011;4477;48.736;9.176;2023-12-14T03:05:42;3.83;;;3.07;;
8881;SDS011;4477;48.736;9.176;2023-12-14T03:08:09;4.37;;;2.90;;
8881;SDS011;4477;48.736;9.176;2023-12-14T03:10:36;4.53;;;3.43;;
8881;SDS011;4477;48.736;9.176;2023-12-14T03:13:03;5.20;;;3.10;;
8881;SDS011;4477;48.736;9.176;2023-12-14T03:15:31;4.20;;;3.20;;
8881;SDS011;4477;48.736;9.176;2023-12-14T03:17:58;4.43;;;3.50;;
8881;SDS011;4477;48.736;9.176;2023-12-14T03:20:24;6.87;;;3.00;;
8881;SDS011;4477;48.736;9.176;2023-12-14T03:22:51;4.30;;;3.53;;
8881;SDS011;4477;48.736;9.176;2023-12-14T03:25:18;5.43;;;3.87;;
8881;SDS011;4477;48.736;9.176;2023-12-14T03:27:45;5.10;;;3.37;;
8881;SDS011;4477;48.736;9.176;2023-12-14T03:30:12;6.87;;;4.10;;
8881;SDS011;4477;48.736;9.176;2023-12-14T03:32:40;5.93;;;4.30;;
8881;SDS011;4477;48.736;9.176;2023-12-14T03:35:07;5.00;;;4.10;;
8881;SDS011;4477;48.736;9.176;2023-12-14T03:37:34;4.97;;;4.13;;
8881;SDS011;4477;48.736;9.176;2023-12-14T03:40:01;5.13;;;4.13;;
8881;SDS011;4477;48.736;9.176;2023-12-14T03:42:28;6.97;;;3.43;;
8881;SDS011;4477;48.736;9.176;2023-12-14T03:44:55;5.23;;;4.10;;
8881;SDS011;4477;48.736;9.176;2023-12-14T03:47:22;5.70;;;3.90;;
8881;SDS011;4477;48.736;9.176;2023-12-14T03:49:50;5.80;;;4.20;;
8881;SDS011;4477;48.736;9.176;2023-12-14T03:52:17;6.47;;;4.17;;
8881;SDS011;4477;48.736;9.176;2023-12-14T03:54:44;6.57;;;4.20;;
8881;SDS011;4477;48.736;9.176;2023-12-14T03:57:11;5.37;;;4.00;;
8881;SDS011;4477;48.736;9.176;2023-12-14T03:59:38;5.80;;;4.07;;
8881;SDS011;4477;48.736;9.176;2023-12-14T04:02:06;5.10;;;4.00;;
8881;SDS011;4477;48.736;9.176;2023-12-14T04:04:33;5.63;;;4.10;;
8881;SDS011;4477;48.736;9.176;2023-12-14T04:07:01;9.87;;;4.90;;
8881;SDS011;4477;48.736;9.176;2023-12-14T04:09:28;8.23;;;4.77;;
8881;SDS011;4477;48.736;9.176;2023-12-14T04:11:55;7.30;;;5.07;;
8881;SDS011;4477;48.736;9.176;2023-12-14T04:14:21;7.60;;;4.90;;
8881;SDS011;4477;48.736;9.176;2023-12-14T04:16:48;8.57;;;4.80;;
8881;SDS011;4477;48.736;9.176;2023-12-14T04:19:15;6.87;;;5.67;;
8881;SDS011;4477;48.736;9.176;2023-12-14T04:21:42;8.93;;;5.50;;
8881;SDS011;4477;48.736;9.176;2023-12-14T04:24:10;12.23;;;6.23;;
8881;SDS011;4477;48.736;9.176;2023-12-14T04:26:38;10.50;;;5.70;;
8881;SDS011;4477;48.736;9.176;2023-12-14T04:29:05;11.20;;;6.40;;
8881;SDS011;4477;48.736;9.176;2023-12-14T04:31:34;10.00;;;6.63;;
8881;SDS011;4477;48.736;9.176;2023-12-14T04:34:00;14.67;;;7.37;;
8881;SDS011;4477;48.736;9.176;2023-12-14T04:36:27;9.27;;;6.77;;
8881;SDS011;4477;48.736;9.176;2023-12-14T04:38:54;15.23;;;7.43;;
8881;SDS011;4477;48.736;9.176;2023-12-14T04:41:22;11.93;;;7.10;;
8881;SDS011;4477;48.736;9.176;2023-12-14T04:43:49;10.83;;;6.60;;
8881;SDS011;4477;48.736;9.176;2023-12-14T04:46:16;12.70;;;7.43;;
8881;SDS011;4477;48.736;9.176;2023-12-14T04:48:43;12.80;;;7.77;;
8881;SDS011;4477;48.736;9.176;2023-12-14T04:51:13;11.43;;;8.00;;
8881;SDS011;4477;48.736;9.176;2023-12-14T04:53:39;12.87;;;8.10;;
8881;SDS011;4477;48.736;9.176;2023-12-14T04:56:09;13.00;;;7.97;;
8881;SDS011;4477;48.736;9.176;2023-12-14T04:58:39;15.90;;;8.70;;
8881;SDS011;4477;48.736;9.176;2023-12-14T05:01:07;14.30;;;8.57;;
8881;SDS011;4477;48.736;9.176;2023-12-14T05:03:34;12.23;;;8.67;;
8881;SDS011;4477;48.736;9.176;2023-12-14T05:06:01;13.40;;;8.90;;
8881;SDS011;4477;48.736;9.176;2023-12-14T05:08:28;12.07;;;8.53;;
8881;SDS011;4477;48.736;9.176;2023-12-14T05:10:55;11.97;;;9.10;;
8881;SDS011;4477;48.736;9.176;2023-12-14T05:13:22;14.17;;;9.10;;
8881;SDS011;4477;48.736;9.176;2023-12-14T05:15:50;15.63;;;9.63;;
8881;SDS011;4477;48.736;9.176;2023-12-14T05:18:18;13.20;;;9.13;;
8881;SDS011;4477;48.736;9.176;2023-12-14T05:20:45;12.10;;;9.20;;
8881;SDS011;4477;48.736;9.176;2023-12-14T05:23:11;12.47;;;9.00;;
8881;SDS011;4477;48.736;9.176;2023-12-14T05:25:39;15.43;;;9.80;;
8881;SDS011;4477;48.736;9.176;2023-12-14T05:28:06;15.17;;;9.47;;
8881;SDS011;4477;48.736;9.176;2023-12-14T05:30:33;13.17;;;9.77;;
8881;SDS011;4477;48.736;9.176;2023-12-14T05:33:01;15.97;;;10.13;;
8881;SDS011;4477;48.736;9.176;2023-12-14T05:35:28;16.77;;;9.70;;
8881;SDS011;4477;48.736;9.176;2023-12-14T05:37:55;16.50;;;10.07;;
8881;SDS011;4477;48.736;9.176;2023-12-14T05:40:22;13.90;;;9.87;;
8881;SDS011;4477;48.736;9.176;2023-12-14T05:42:49;16.77;;;10.33;;
8881;SDS011;4477;48.736;9.176;2023-12-14T05:45:16;15.60;;;10.57;;
8881;SDS011;4477;48.736;9.176;2023-12-14T05:47:43;18.53;;;11.23;;
8881;SDS011;4477;48.736;9.176;2023-12-14T05:50:11;15.93;;;10.77;;
8881;SDS011;4477;48.736;9.176;2023-12-14T05:52:38;18.93;;;11.73;;
8881;SDS011;4477;48.736;9.176;2023-12-14T05:55:07;18.00;;;11.13;;
8881;SDS011;4477;48.736;9.176;2023-12-14T05:57:34;17.37;;;12.13;;
8881;SDS011;4477;48.736;9.176;2023-12-14T06:00:01;21.00;;;12.57;;
8881;SDS011;4477;48.736;9.176;2023-12-14T06:02:30;18.30;;;12.27;;
8881;SDS011;4477;48.736;9.176;2023-12-14T06:04:57;21.60;;;12.80;;
8881;SDS011;4477;48.736;9.176;2023-12-14T06:07:25;18.03;;;12.47;;
8881;SDS011;4477;48.736;9.176;2023-12-14T06:09:52;20.27;;;12.57;;
8881;SDS011;4477;48.736;9.176;2023-12-14T06:12:19;21.77;;;13.80;;
8881;SDS011;4477;48.736;9.176;2023-12-14T06:14:46;21.33;;;13.43;;
8881;SDS011;4477;48.736;9.176;2023-12-14T06:17:13;22.93;;;14.37;;
8881;SDS011;4477;48.736;9.176;2023-12-14T06:19:40;23.10;;;13.60;;
8881;SDS011;4477;48.736;9.176;2023-12-14T06:22:07;22.90;;;14.57;;
8881;SDS011;4477;48.736;9.176;2023-12-14T06:24:35;23.40;;;14.23;;
8881;SDS011;4477;48.736;9.176;2023-12-14T06:27:02;24.00;;;15.07;;
8881;SDS011;4477;48.736;9.176;2023-12-14T06:29:29;25.87;;;15.33;;
8881;SDS011;4477;48.736;9.176;2023-12-14T06:31:56;24.17;;;14.80;;
8881;SDS011;4477;48.736;9.176;2023-12-14T06:34:23;25.03;;;15.00;;
8881;SDS011;4477;48.736;9.176;2023-12-14T06:36:50;22.83;;;15.30;;
8881;SDS011;4477;48.736;9.176;2023-12-14T06:39:17;25.77;;;15.40;;
8881;SDS011;4477;48.736;9.176;2023-12-14T06:41:45;22.70;;;14.40;;
8881;SDS011;4477;48.736;9.176;2023-12-14T06:44:12;21.27;;;13.43;;
8881;SDS011;4477;48.736;9.176;2023-12-14T06:46:39;21.37;;;13.20;;
8881;SDS011;4477;48.736;9.176;2023-12-14T06:49:06;21.67;;;12.47;;
8881;SDS011;4477;48.736;9.176;2023-12-14T06:51:33;19.77;;;11.93;;
8881;SDS011;4477;48.736;9.176;2023-12-14T06:53:59;20.90;;;13.23;;
8881;SDS011;4477;48.736;9.176;2023-12-14T06:56:27;16.60;;;11.73;;
8881;SDS011;4477;48.736;9.176;2023-12-14T06:58:55;18.20;;;10.73;;
8881;SDS011;4477;48.736;9.176;2023-12-14T07:01:22;16.10;;;11.00;;
8881;SDS011;4477;48.736;9.176;2023-12-14T07:03:49;17.93;;;10.77;;
8881;SDS011;4477;48.736;9.176;2023-12-14T07:06:16;19.50;;;10.93;;
8881;SDS011;4477;48.736;9.176;2023-12-14T07:08:44;20.50;;;11.63;;
8881;SDS011;4477;48.736;9.176;2023-12-14T07:11:12;15.80;;;10.30;;
8881;SDS011;4477;48.736;9.176;2023-12-14T07:13:39;16.17;;;10.87;;
8881;SDS011;4477;48.736;9.176;2023-12-14T07:16:08;17.60;;;9.67;;
8881;SDS011;4477;48.736;9.176;2023-12-14T07:18:36;15.33;;;10.33;;
8881;SDS011;4477;48.736;9.176;2023-12-14T07:21:04;19.27;;;9.80;;
8881;SDS011;4477;48.736;9.176;2023-12-14T07:23:31;15.00;;;9.77;;
8881;SDS011;4477;48.736;9.176;2023-12-14T07:25:58;17.13;;;10.20;;
8881;SDS011;4477;48.736;9.176;2023-12-14T07:28:24;20.43;;;9.77;;
8881;SDS011;4477;48.736;9.176;2023-12-14T07:30:52;15.23;;;9.37;;
8881;SDS011;4477;48.736;9.176;2023-12-14T07:33:20;13.57;;;9.00;;
8881;SDS011;4477;48.736;9.176;2023-12-14T07:35:47;14.47;;;8.93;;
8881;SDS011;4477;48.736;9.176;2023-12-14T07:38:14;15.90;;;9.67;;
8881;SDS011;4477;48.736;9.176;2023-12-14T07:40:41;18.50;;;9.70;;
8881;SDS011;4477;48.736;9.176;2023-12-14T07:43:08;15.83;;;9.33;;
8881;SDS011;4477;48.736;9.176;2023-12-14T07:45:35;15.50;;;10.33;;
8881;SDS011;4477;48.736;9.176;2023-12-14T07:48:02;13.90;;;9.37;;
8881;SDS011;4477;48.736;9.176;2023-12-14T07:50:31;13.83;;;8.50;;
8881;SDS011;4477;48.736;9.176;2023-12-14T07:52:58;17.47;;;10.20;;
8881;SDS011;4477;48.736;9.176;2023-12-14T07:55:25;17.27;;;10.43;;
8881;SDS011;4477;48.736;9.176;2023-12-14T07:57:51;17.53;;;10.10;;
8881;SDS011;4477;48.736;9.176;2023-12-14T08:00:18;14.60;;;9.47;;
8881;SDS011;4477;48.736;9.176;2023-12-14T08:02:45;17.17;;;9.90;;
8881;SDS011;4477;48.736;9.176;2023-12-14T08:05:12;15.97;;;10.03;;
8881;SDS011;4477;48.736;9.176;2023-12-14T08:07:41;14.63;;;9.50;;
8881;SDS011;4477;48.736;9.176;2023-12-14T08:10:08;14.40;;;9.00;;
8881;SDS011;4477;48.736;9.176;2023-12-14T08:12:35;15.77;;;8.90;;
8881;SDS011;4477;48.736;9.176;2023-12-14T08:15:02;16.90;;;9.33;;
8881;SDS011;4477;48.736;9.176;2023-12-14T08:17:29;16.60;;;9.57;;
8881;SDS011;4477;48.736;9.176;2023-12-14T08:19:56;15.87;;;8.90;;
8881;SDS011;4477;48.736;9.176;2023-12-14T08:22:23;20.87;;;9.70;;
8881;SDS011;4477;48.736;9.176;2023-12-14T08:24:51;16.03;;;9.03;;
8881;SDS011;4477;48.736;9.176;2023-12-14T08:27:18;16.70;;;9.30;;
8881;SDS011;4477;48.736;9.176;2023-12-14T08:29:45;18.43;;;9.80;;
8881;SDS011;4477;48.736;9.176;2023-12-14T08:32:12;15.40;;;9.10;;
8881;SDS011;4477;48.736;9.176;2023-12-14T08:34:39;13.57;;;9.30;;
8881;SDS011;4477;48.736;9.176;2023-12-14T08:37:06;13.97;;;9.00;;
8881;SDS011;4477;48.736;9.176;2023-12-14T08:39:33;14.77;;;9.00;;
8881;SDS011;4477;48.736;9.176;2023-12-14T08:42:02;12.67;;;9.07;;
8881;SDS011;4477;48.736;9.176;2023-12-14T08:44:29;16.23;;;8.93;;
8881;SDS011;4477;48.736;9.176;2023-12-14T08:46:56;15.00;;;9.87;;
8881;SDS011;4477;48.736;9.176;2023-12-14T08:49:23;13.27;;;9.30;;
8881;SDS011;4477;48.736;9.176;2023-12-14T08:51:50;12.37;;;9.50;;
8881;SDS011;4477;48.736;9.176;2023-12-14T08:54:17;14.33;;;9.37;;
8881;SDS011;4477;48.736;9.176;2023-12-14T08:56:44;15.63;;;10.03;;
8881;SDS011;4477;48.736;9.176;2023-12-14T08:59:12;13.33;;;9.97;;
8881;SDS011;4477;48.736;9.176;2023-12-14T09:01:39;13.30;;;9.20;;
8881;SDS011;4477;48.736;9.176;2023-12-14T09:04:06;15.73;;;10.07;;
8881;SDS011;4477;48.736;9.176;2023-12-14T09:06:33;13.03;;;8.97;;
8881;SDS011;4477;48.736;9.176;2023-12-14T09:09:00;13.50;;;9.43;;
8881;SDS011;4477;48.736;9.176;2023-12-14T09:11:27;13.90;;;10.03;;
8881;SDS011;4477;48.736;9.176;2023-12-14T09:13:54;15.00;;;10.00;;
8881;SDS011;4477;48.736;9.176;2023-12-14T09:16:23;15.57;;;10.17;;
8881;SDS011;4477;48.736;9.176;2023-12-14T09:18:50;14.67;;;9.60;;
8881;SDS011;4477;48.736;9.176;2023-12-14T09:21:17;13.43;;;9.50;;
8881;SDS011;4477;48.736;9.176;2023-12-14T09:23:44;15.97;;;10.17;;
8881;SDS011;4477;48.736;9.176;2023-12-14T09:26:11;12.90;;;9.53;;
8881;SDS011;4477;48.736;9.176;2023-12-14T09:28:37;15.57;;;9.73;;
8881;SDS011;4477;48.736;9.176;2023-12-14T09:31:05;12.17;;;9.30;;
8881;SDS011;4477;48.736;9.176;2023-12-14T09:33:34;13.20;;;9.70;;
8881;SDS011;4477;48.736;9.176;2023-12-14T09:36:01;13.53;;;9.57;;
8881;SDS011;4477;48.736;9.176;2023-12-14T09:38:28;13.03;;;9.33;;
8881;SDS011;4477;48.736;9.176;2023-12-14T09:40:55;12.00;;;9.10;;
8881;SDS011;4477;48.736;9.176;2023-12-14T09:43:22;15.00;;;10.37;;
8881;SDS011;4477;48.736;9.176;2023-12-14T09:45:49;14.77;;;10.67;;
8881;SDS011;4477;48.736;9.176;2023-12-14T09:48:17;14.90;;;10.10;;
8881;SDS011;4477;48.736;9.176;2023-12-14T09:50:46;13.30;;;9.63;;
8881;SDS011;4477;48.736;9.176;2023-12-14T09:53:15;10.87;;;9.10;;
8881;SDS011;4477;48.736;9.176;2023-12-14T09:55:43;12.97;;;9.70;;
8881;SDS011;4477;48.736;9.176;2023-12-14T09:58:10;14.97;;;9.90;;
8881;SDS011;4477;48.736;9.176;2023-12-14T10:00:38;13.43;;;9.27;;
8881;SDS011;4477;48.736;9.176;2023-12-14T10:05:56;11.83;;;9.77;;
8881;SDS011;4477;48.736;9.176;2023-12-14T10:08:25;15.90;;;10.73;;
8881;SDS011;4477;48.736;9.176;2023-12-14T10:10:53;12.77;;;10.13;;
8881;SDS011;4477;48.736;9.176;2023-12-14T10:13:21;16.80;;;10.87;;
8881;SDS011;4477;48.736;9.176;2023-12-14T10:16:01;14.30;;;9.90;;
8881;SDS011;4477;48.736;9.176;2023-12-14T10:18:28;12.70;;;9.73;;
8881;SDS011;4477;48.736;9.176;2023-12-14T10:21:04;11.63;;;9.17;;
8881;SDS011;4477;48.736;9.176;2023-12-14T10:23:33;11.83;;;9.23;;
8881;SDS011;4477;48.736;9.176;2023-12-14T10:26:00;9.80;;;8.20;;
8881;SDS011;4477;48.736;9.176;2023-12-14T10:28:27;10.20;;;7.53;;
8881;SDS011;4477;48.736;9.176;2023-12-14T10:30:55;9.60;;;7.53;;
8881;SDS011;4477;48.736;9.176;2023-12-14T10:33:21;11.63;;;8.07;;
8881;SDS011;4477;48.736;9.176;2023-12-14T10:35:48;12.03;;;8.20;;
8881;SDS011;4477;48.736;9.176;2023-12-14T10:38:18;10.00;;;7.30;;
8881;SDS011;4477;48.736;9.176;2023-12-14T10:40:46;8.23;;;7.00;;
8881;SDS011;4477;48.736;9.176;2023-12-14T10:43:14;9.30;;;7.27;;
8881;SDS011;4477;48.736;9.176;2023-12-14T10:45:43;9.87;;;7.27;;
8881;SDS011;4477;48.736;9.176;2023-12-14T10:48:16;9.63;;;6.73;;
8881;SDS011;4477;48.736;9.176;2023-12-14T10:50:45;7.70;;;6.67;;
8881;SDS011;4477;48.736;9.176;2023-12-14T10:53:14;8.03;;;6.60;;
8881;SDS011;4477;48.736;9.176;2023-12-14T10:55:43;8.70;;;6.00;;
8881;SDS011;4477;48.736;9.176;2023-12-14T10:58:11;6.23;;;4.33;;
8881;SDS011;4477;48.736;9.176;2023-12-14T11:00:41;5.23;;;3.40;;
8881;SDS011;4477;48.736;9.176;2023-12-14T11:03:12;5.63;;;3.80;;
8881;SDS011;4477;48.736;9.176;2023-12-14T11:05:40;4.53;;;3.77;;
8881;SDS011;4477;48.736;9.176;2023-12-14T11:08:07;5.77;;;4.50;;
8881;SDS011;4477;48.736;9.176;2023-12-14T11:10:37;5.07;;;4.57;;
8881;SDS011;4477;48.736;9.176;2023-12-14T11:13:07;7.20;;;4.50;;
8881;SDS011;4477;48.736;9.176;2023-12-14T11:15:37;6.40;;;4.50;;
8881;SDS011;4477;48.736;9.176;2023-12-14T11:18:19;6.10;;;4.43;;
8881;SDS011;4477;48.736;9.176;2023-12-14T11:20:47;5.50;;;4.87;;
8881;SDS011;4477;48.736;9.176;2023-12-14T11:23:16;5.40;;;3.90;;
8881;SDS011;4477;48.736;9.176;2023-12-14T11:25:55;3.30;;;3.00;;
8881;SDS011;4477;48.736;9.176;2023-12-14T11:28:25;3.83;;;3.00;;
8881;SDS011;4477;48.736;9.176;2023-12-14T11:30:52;5.90;;;3.20;;
8881;SDS011;4477;48.736;9.176;2023-12-14T11:33:19;5.00;;;3.30;;
8881;SDS011;4477;48.736;9.176;2023-12-14T11:35:46;4.57;;;3.23;;
8881;SDS011;4477;48.736;9.176;2023-12-14T11:38:13;3.57;;;2.70;;
8881;SDS011;4477;48.736;9.176;2023-12-14T11:40:39;4.73;;;2.53;;
8881;SDS011;4477;48.736;9.176;2023-12-14T11:43:07;4.00;;;2.97;;
8881;SDS011;4477;48.736;9.176;2023-12-14T11:45:36;4.63;;;2.97;;
8881;SDS011;4477;48.736;9.176;2023-12-14T11:48:04;3.80;;;3.40;;
8881;SDS011;4477;48.736;9.176;2023-12-14T11:50:31;6.00;;;3.60;;
8881;SDS011;4477;48.736;9.176;2023-12-14T11:52:59;5.43;;;3.63;;
8881;SDS011;4477;48.736;9.176;2023-12-14T11:55:28;6.73;;;4.43;;
8881;SDS011;4477;48.736;9.176;2023-12-14T11:57:55;5.50;;;4.00;;
8881;SDS011;4477;48.736;9.176;2023-12-14T12:00:25;8.07;;;4.40;;
8881;SDS011;4477;48.736;9.176;2023-12-14T12:03:07;9.00;;;4.50;;
8881;SDS011;4477;48.736;9.176;2023-12-14T12:05:35;6.07;;;3.73;;
8881;SDS011;4477;48.736;9.176;2023-12-14T12:08:05;5.23;;;2.97;;
8881;SDS011;4477;48.736;9.176;2023-12-14T12:10:32;3.50;;;2.97;;
8881;SDS011;4477;48.736;9.176;2023-12-14T12:13:00;3.70;;;2.87;;
8881;SDS011;4477;48.736;9.176;2023-12-14T12:15:30;3.80;;;2.20;;
8881;SDS011;4477;48.736;9.176;2023-12-14T12:17:58;2.17;;;1.97;;
8881;SDS011;4477;48.736;9.176;2023-12-14T12:20:26;3.50;;;2.17;;
8881;SDS011;4477;48.736;9.176;2023-12-14T12:22:53;2.10;;;1.80;;
8881;SDS011;4477;48.736;9.176;2023-12-14T12:25:20;2.50;;;2.07;;
8881;SDS011;4477;48.736;9.176;2023-12-14T12:27:47;3.33;;;2.00;;
8881;SDS011;4477;48.736;9.176;2023-12-14T12:30:14;2.67;;;1.73;;
8881;SDS011;4477;48.736;9.176;2023-12-14T12:32:42;2.53;;;1.53;;
8881;SDS011;4477;48.736;9.176;2023-12-14T12:35:09;1.70;;;1.50;;
8881;SDS011;4477;48.736;9.176;2023-12-14T12:37:37;1.97;;;1.70;;
8881;SDS011;4477;48.736;9.176;2023-12-14T12:40:05;3.10;;;1.97;;
8881;SDS011;4477;48.736;9.176;2023-12-14T12:42:32;2.53;;;2.10;;
8881;SDS011;4477;48.736;9.176;2023-12-14T12:44:59;4.60;;;2.97;;
8881;SDS011;4477;48.736;9.176;2023-12-14T12:47:26;3.80;;;3.40;;
8881;SDS011;4477;48.736;9.176;2023-12-14T12:49:53;3.37;;;2.93;;
8881;SDS011;4477;48.736;9.176;2023-12-14T12:52:20;3.90;;;3.50;;
8881;SDS011;4477;48.736;9.176;2023-12-14T12:54:49;5.67;;;4.23;;
8881;SDS011;4477;48.736;9.176;2023-12-14T12:57:16;4.13;;;2.47;;
8881;SDS011;4477;48.736;9.176;2023-12-14T12:59:42;3.80;;;2.27;;
8881;SDS011;4477;48.736;9.176;2023-12-14T13:02:10;3.70;;;2.00;;
8881;SDS011;4477;48.736;9.176;2023-12-14T13:04:37;1.93;;;1.73;;
8881;SDS011;4477;48.736;9.176;2023-12-14T13:07:04;3.53;;;2.40;;
8881;SDS011;4477;48.736;9.176;2023-12-14T13:09:31;2.80;;;2.20;;
8881;SDS011;4477;48.736;9.176;2023-12-14T13:11:59;4.50;;;2.40;;
8881;SDS011;4477;48.736;9.176;2023-12-14T13:14:26;4.60;;;2.37;;
8881;SDS011;4477;48.736;9.176;2023-12-14T13:16:53;2.57;;;2.37;;
8881;SDS011;4477;48.736;9.176;2023-12-14T13:19:20;3.87;;;3.13;;
8881;SDS011;4477;48.736;9.176;2023-12-14T13:21:48;5.10;;;3.00;;
8881;SDS011;4477;48.736;9.176;2023-12-14T13:24:15;3.40;;;2.63;;
8881;SDS011;4477;48.736;9.176;2023-12-14T13:26:41;2.67;;;1.90;;
8881;SDS011;4477;48.736;9.176;2023-12-14T13:29:10;5.33;;;2.57;;
8881;SDS011;4477;48.736;9.176;2023-12-14T13:31:37;4.60;;;3.10;;
8881;SDS011;4477;48.736;9.176;2023-12-14T13:34:04;4.27;;;3.33;;
8881;SDS011;4477;48.736;9.176;2023-12-14T13:36:32;4.87;;;3.00;;
8881;SDS011;4477;48.736;9.176;2023-12-14T13:38:59;6.40;;;3.67;;
8881;SDS011;4477;48.736;9.176;2023-12-14T13:41:27;4.07;;;3.60;;
8881;SDS011;4477;48.736;9.176;2023-12-14T13:43:58;6.57;;;3.93;;
8881;SDS011;4477;48.736;9.176;2023-12-14T13:46:27;3.93;;;3.53;;
8881;SDS011;4477;48.736;9.176;2023-12-14T13:48:54;5.53;;;3.33;;
8881;SDS011;4477;48.736;9.176;2023-12-14T13:51:21;6.73;;;3.67;;
8881;SDS011;4477;48.736;9.176;2023-12-14T13:53:48;3.87;;;3.40;;
8881;SDS011;4477;48.736;9.176;2023-12-14T13:56:15;7.57;;;4.23;;
8881;SDS011;4477;48.736;9.176;2023-12-14T13:58:42;6.03;;;3.77;;
8881;SDS011;4477;48.736;9.176;2023-12-14T14:01:09;6.33;;;3.90;;
8881;SDS011;4477;48.736;9.176;2023-12-14T14:03:37;5.67;;;3.87;;
8881;SDS011;4477;48.736;9.176;2023-12-14T14:06:07;5.03;;;4.10;;
8881;SDS011;4477;48.736;9.176;2023-12-14T14:08:34;5.57;;;3.83;;
8881;SDS011;4477;48.736;9.176;2023-12-14T14:11:01;6.03;;;4.53;;
8881;SDS011;4477;48.736;9.176;2023-12-14T14:13:28;5.73;;;4.67;;
8881;SDS011;4477;48.736;9.176;2023-12-14T14:15:56;6.83;;;5.20;;
8881;SDS011;4477;48.736;9.176;2023-12-14T14:18:23;8.10;;;5.80;;
8881;SDS011;4477;48.736;9.176;2023-12-14T14:20:51;10.20;;;5.80;;
8881;SDS011;4477;48.736;9.176;2023-12-14T14:23:18;9.33;;;7.20;;
8881;SDS011;4477;48.736;9.176;2023-12-14T14:25:45;11.33;;;8.17;;
8881;SDS011;4477;48.736;9.176;2023-12-14T14:28:12;13.20;;;9.50;;
8881;SDS011;4477;48.736;9.176;2023-12-14T14:30:39;15.00;;;10.07;;
8881;SDS011;4477;48.736;9.176;2023-12-14T14:33:06;15.70;;;10.13;;
8881;SDS011;4477;48.736;9.176;2023-12-14T14:35:33;16.17;;;11.00;;
8881;SDS011;4477;48.736;9.176;2023-12-14T14:38:03;17.37;;;11.00;;
8881;SDS011;4477;48.736;9.176;2023-12-14T14:40:31;15.43;;;10.07;;
8881;SDS011;4477;48.736;9.176;2023-12-14T14:42:58;17.67;;;11.53;;
8881;SDS011;4477;48.736;9.176;2023-12-14T14:45:25;18.07;;;11.23;;
8881;SDS011;4477;48.736;9.176;2023-12-14T14:47:52;18.33;;;10.90;;
8881;SDS011;4477;48.736;9.176;2023-12-14T14:50:19;18.00;;;12.73;;
8881;SDS011;4477;48.736;9.176;2023-12-14T14:52:46;17.03;;;11.47;;
8881;SDS011;4477;48.736;9.176;2023-12-14T14:55:14;21.97;;;13.07;;
8881;SDS011;4477;48.736;9.176;2023-12-14T14:57:41;19.47;;;12.20;;
8881;SDS011;4477;48.736;9.176;2023-12-14T15:00:09;19.87;;;12.13;;
8881;SDS011;4477;48.736;9.176;2023-12-14T15:02:36;18.03;;;12.10;;
8881;SDS011;4477;48.736;9.176;2023-12-14T15:05:03;20.10;;;12.50;;
8881;SDS011;4477;48.736;9.176;2023-12-14T15:07:30;21.43;;;12.33;;
8881;SDS011;4477;48.736;9.176;2023-12-14T15:09:57;21.00;;;12.83;;